createdAt,value
2016-12-29T00:00:39.103Z,0
2016-12-29T00:01:39.149Z,0
2016-12-29T00:02:39.221Z,0
2016-12-29T00:03:39.266Z,0
2016-12-29T00:04:39.330Z,0
2016-12-29T00:05:39.393Z,0
2016-12-29T00:06:39.448Z,0
2016-12-29T00:07:39.551Z,0
2016-12-29T00:08:39.565Z,0
2016-12-29T00:09:39.606Z,0
2016-12-29T00:10:39.661Z,0
2016-12-29T00:11:39.718Z,0
2016-12-29T00:12:39.778Z,0
2016-12-29T00:13:39.860Z,0
2016-12-29T00:14:39.897Z,0
2016-12-29T00:15:39.960Z,0
2016-12-29T00:16:40.004Z,0
2016-12-29T00:17:40.059Z,0
2016-12-29T00:18:40.119Z,0
2016-12-29T00:19:40.157Z,0
2016-12-29T00:20:40.229Z,0
2016-12-29T00:21:40.282Z,0
2016-12-29T00:22:40.339Z,0
2016-12-29T00:23:40.387Z,0
2016-12-29T00:24:40.445Z,0
2016-12-29T00:25:40.497Z,0
2016-12-29T00:26:40.547Z,0
2016-12-29T00:27:40.623Z,0
2016-12-29T00:28:40.674Z,0
2016-12-29T00:29:40.734Z,0
2016-12-29T00:30:40.769Z,0
2016-12-29T00:31:40.836Z,0
2016-12-29T00:32:40.918Z,0
2016-12-29T00:33:40.947Z,0
2016-12-29T00:34:41.009Z,0
2016-12-29T00:35:41.072Z,0
2016-12-29T00:36:41.112Z,0
2016-12-29T00:37:41.182Z,0
2016-12-29T00:38:41.239Z,0
2016-12-29T00:39:41.298Z,0
2016-12-29T00:40:41.340Z,0
2016-12-29T00:41:41.390Z,0
2016-12-29T00:42:41.445Z,0
2016-12-29T00:43:41.664Z,0
2016-12-29T00:44:41.570Z,0
2016-12-29T00:45:41.635Z,0
2016-12-29T00:46:41.688Z,0
2016-12-29T00:47:41.746Z,0
2016-12-29T00:48:41.784Z,0
2016-12-29T00:49:41.859Z,0
2016-12-29T00:50:41.898Z,0
2016-12-29T00:51:41.970Z,0
2016-12-29T00:52:42.020Z,0
2016-12-29T00:53:42.079Z,0
2016-12-29T00:54:42.128Z,0
2016-12-29T00:55:42.186Z,0
2016-12-29T00:56:42.234Z,0
2016-12-29T00:57:42.305Z,0
2016-12-29T00:58:42.350Z,0
2016-12-29T00:59:42.811Z,0
2016-12-29T01:00:42.471Z,0
2016-12-29T01:01:42.529Z,0
2016-12-29T01:02:42.583Z,0
2016-12-29T01:03:42.634Z,0
2016-12-29T01:04:42.683Z,0
2016-12-29T01:05:42.753Z,0
2016-12-29T01:06:42.812Z,0
2016-12-29T01:07:42.869Z,0
2016-12-29T01:08:42.919Z,0
2016-12-29T01:09:42.976Z,0
2016-12-29T01:10:43.036Z,0
2016-12-29T01:11:43.091Z,0
2016-12-29T01:12:43.158Z,0
2016-12-29T01:13:43.198Z,0
2016-12-29T01:14:43.251Z,0
2016-12-29T01:15:43.305Z,0
2016-12-29T01:16:43.368Z,0
2016-12-29T01:17:43.421Z,0
2016-12-29T01:18:43.488Z,0
2016-12-29T01:19:43.514Z,0
2016-12-29T01:20:43.572Z,0
2016-12-29T01:21:43.645Z,0
2016-12-29T01:22:43.692Z,0
2016-12-29T01:23:43.741Z,0
2016-12-29T01:24:43.815Z,0
2016-12-29T01:25:43.854Z,0
2016-12-29T01:26:43.918Z,0
2016-12-29T01:27:43.987Z,0
2016-12-29T01:28:44.032Z,0
2016-12-29T01:29:44.100Z,0
2016-12-29T01:30:44.138Z,0
2016-12-29T01:31:44.199Z,0
2016-12-29T01:32:44.256Z,0
2016-12-29T01:33:44.345Z,0
2016-12-29T01:34:44.357Z,0
2016-12-29T01:35:44.421Z,0
2016-12-29T01:36:44.480Z,0
2016-12-29T01:37:44.529Z,0
2016-12-29T01:38:44.587Z,0
2016-12-29T01:39:44.644Z,0
2016-12-29T01:40:44.701Z,0
2016-12-29T01:41:44.759Z,0
2016-12-29T01:42:44.805Z,0
2016-12-29T01:43:44.878Z,0
2016-12-29T01:44:44.935Z,0
2016-12-29T01:45:44.975Z,0
2016-12-29T01:46:45.035Z,0
2016-12-29T01:47:45.085Z,0
2016-12-29T01:48:45.161Z,0
2016-12-29T01:49:45.240Z,0
2016-12-29T01:50:45.278Z,0
2016-12-29T01:51:45.715Z,0
2016-12-29T01:52:45.384Z,0
2016-12-29T01:53:45.439Z,0
2016-12-29T01:54:45.488Z,0
2016-12-29T01:55:45.556Z,0
2016-12-29T01:56:45.636Z,0
2016-12-29T01:57:45.652Z,0
2016-12-29T01:58:45.721Z,0
2016-12-29T01:59:45.790Z,0
2016-12-29T02:00:46.218Z,0
2016-12-29T02:01:45.911Z,0
2016-12-29T02:02:46.333Z,0
2016-12-29T02:03:45.994Z,0
2016-12-29T02:04:46.063Z,0
2016-12-29T02:05:46.113Z,0
2016-12-29T02:06:46.171Z,0
2016-12-29T02:07:46.223Z,0
2016-12-29T02:08:46.274Z,0
2016-12-29T02:09:46.339Z,0
2016-12-29T02:10:46.381Z,0
2016-12-29T02:11:46.444Z,0
2016-12-29T02:12:46.503Z,0
2016-12-29T02:13:46.557Z,0
2016-12-29T02:14:46.613Z,0
2016-12-29T02:15:46.685Z,0
2016-12-29T02:16:46.735Z,0
2016-12-29T02:17:46.775Z,0
2016-12-29T02:18:46.834Z,0
2016-12-29T02:19:46.888Z,0
2016-12-29T02:20:46.942Z,0
2016-12-29T02:21:47.000Z,0
2016-12-29T02:22:47.053Z,0
2016-12-29T02:23:47.117Z,0
2016-12-29T02:24:47.162Z,0
2016-12-29T02:25:47.226Z,0
2016-12-29T02:26:47.279Z,0
2016-12-29T02:27:47.339Z,0
2016-12-29T02:28:47.380Z,0
2016-12-29T02:29:47.450Z,0
2016-12-29T02:30:47.499Z,0
2016-12-29T02:31:47.577Z,0
2016-12-29T02:32:47.614Z,0
2016-12-29T02:33:47.664Z,0
2016-12-29T02:34:47.731Z,0
2016-12-29T02:35:47.799Z,0
2016-12-29T02:36:47.845Z,0
2016-12-29T02:37:47.892Z,0
2016-12-29T02:38:47.956Z,0
2016-12-29T02:39:47.996Z,0
2016-12-29T02:40:48.054Z,0
2016-12-29T02:41:48.124Z,0
2016-12-29T02:42:48.171Z,0
2016-12-29T02:43:48.225Z,0
2016-12-29T02:44:48.285Z,0
2016-12-29T02:45:48.340Z,0
2016-12-29T02:46:48.403Z,0
2016-12-29T02:47:48.444Z,0
2016-12-29T02:48:48.512Z,0
2016-12-29T02:49:48.567Z,0
2016-12-29T02:50:48.627Z,0
2016-12-29T02:51:48.683Z,0
2016-12-29T02:52:48.732Z,0
2016-12-29T02:53:48.797Z,0
2016-12-29T02:54:48.845Z,0
2016-12-29T02:55:48.908Z,0
2016-12-29T02:56:48.962Z,0
2016-12-29T02:57:49.021Z,0
2016-12-29T02:58:49.073Z,0
2016-12-29T02:59:49.123Z,0
2016-12-29T03:00:49.194Z,0
2016-12-29T03:01:49.252Z,0
2016-12-29T03:02:49.286Z,0
2016-12-29T03:03:49.367Z,0
2016-12-29T03:04:49.415Z,0
2016-12-29T03:05:49.467Z,0
2016-12-29T03:06:49.532Z,0
2016-12-29T03:07:49.584Z,0
2016-12-29T03:08:49.645Z,0
2016-12-29T03:09:49.690Z,0
2016-12-29T03:10:49.747Z,0
2016-12-29T03:11:49.808Z,0
2016-12-29T03:12:49.872Z,0
2016-12-29T03:13:49.909Z,0
2016-12-29T03:14:50.357Z,0
2016-12-29T03:15:50.025Z,0
2016-12-29T03:16:50.077Z,0
2016-12-29T03:17:50.153Z,0
2016-12-29T03:18:50.198Z,0
2016-12-29T03:19:50.283Z,0
2016-12-29T03:20:50.334Z,0
2016-12-29T03:21:50.373Z,0
2016-12-29T03:22:50.419Z,0
2016-12-29T03:23:50.475Z,0
2016-12-29T03:24:50.542Z,0
2016-12-29T03:25:50.591Z,0
2016-12-29T03:26:50.651Z,0
2016-12-29T03:27:50.702Z,0
2016-12-29T03:28:50.761Z,0
2016-12-29T03:29:50.839Z,0
2016-12-29T03:30:50.871Z,0
2016-12-29T03:31:50.926Z,0
2016-12-29T03:32:50.977Z,0
2016-12-29T03:33:51.038Z,0
2016-12-29T03:34:51.086Z,0
2016-12-29T03:35:51.150Z,0
2016-12-29T03:36:51.205Z,0
2016-12-29T03:37:51.267Z,0
2016-12-29T03:38:51.312Z,0
2016-12-29T03:39:51.383Z,0
2016-12-29T03:40:51.437Z,0
2016-12-29T03:41:51.477Z,0
2016-12-29T03:42:51.550Z,0
2016-12-29T03:43:51.624Z,0
2016-12-29T03:44:51.648Z,0
2016-12-29T03:45:51.742Z,0
2016-12-29T03:46:51.768Z,0
2016-12-29T03:47:51.833Z,0
2016-12-29T03:48:51.886Z,0
2016-12-29T03:49:51.939Z,0
2016-12-29T03:50:51.992Z,0
2016-12-29T03:51:52.043Z,0
2016-12-29T03:52:52.100Z,0
2016-12-29T03:53:52.165Z,0
2016-12-29T03:54:52.244Z,0
2016-12-29T03:55:52.270Z,0
2016-12-29T03:56:52.330Z,0
2016-12-29T03:57:52.386Z,0
2016-12-29T03:58:52.454Z,0
2016-12-29T03:59:52.514Z,0
2016-12-29T04:00:52.561Z,0
2016-12-29T04:01:52.621Z,0
2016-12-29T04:02:52.675Z,0
2016-12-29T04:03:52.722Z,0
2016-12-29T04:04:52.783Z,0
2016-12-29T04:05:52.834Z,0
2016-12-29T04:06:53.295Z,0
2016-12-29T04:07:52.951Z,0
2016-12-29T04:08:53.029Z,0
2016-12-29T04:09:53.071Z,0
2016-12-29T04:10:53.133Z,0
2016-12-29T04:11:53.197Z,0
2016-12-29T04:12:53.228Z,0
2016-12-29T04:13:53.296Z,0
2016-12-29T04:14:53.348Z,0
2016-12-29T04:15:53.417Z,0
2016-12-29T04:16:53.464Z,0
2016-12-29T04:17:53.523Z,0
2016-12-29T04:18:53.572Z,0
2016-12-29T04:19:53.634Z,0
2016-12-29T04:20:53.680Z,0
2016-12-29T04:21:53.734Z,0
2016-12-29T04:22:53.803Z,0
2016-12-29T04:23:53.855Z,0
2016-12-29T04:24:53.896Z,0
2016-12-29T04:25:53.963Z,0
2016-12-29T04:26:54.018Z,0
2016-12-29T04:27:54.064Z,0
2016-12-29T04:28:54.143Z,0
2016-12-29T04:29:54.177Z,0
2016-12-29T04:30:54.244Z,0
2016-12-29T04:31:54.292Z,0
2016-12-29T04:32:54.350Z,0
2016-12-29T04:33:54.410Z,0
2016-12-29T04:34:54.467Z,0
2016-12-29T04:35:54.541Z,0
2016-12-29T04:36:54.588Z,0
2016-12-29T04:37:54.624Z,0
2016-12-29T04:38:54.695Z,0
2016-12-29T04:39:54.739Z,0
2016-12-29T04:40:54.802Z,0
2016-12-29T04:41:54.855Z,0
2016-12-29T04:42:54.909Z,0
2016-12-29T04:43:54.971Z,0
2016-12-29T04:44:55.017Z,0
2016-12-29T04:45:55.076Z,0
2016-12-29T04:46:55.132Z,0
2016-12-29T04:47:55.185Z,0
2016-12-29T04:48:55.250Z,0
2016-12-29T04:49:55.295Z,0
2016-12-29T04:50:55.361Z,0
2016-12-29T04:51:55.402Z,0
2016-12-29T04:52:55.463Z,0
2016-12-29T04:53:55.521Z,0
2016-12-29T04:54:55.590Z,0
2016-12-29T04:55:55.634Z,0
2016-12-29T04:56:55.689Z,0
2016-12-29T04:57:55.749Z,0
2016-12-29T04:58:55.797Z,0
2016-12-29T04:59:55.862Z,0
2016-12-29T05:00:55.919Z,0
2016-12-29T05:01:55.964Z,0
2016-12-29T05:02:56.031Z,0
2016-12-29T05:03:56.079Z,0
2016-12-29T05:04:56.136Z,0
2016-12-29T05:05:56.183Z,0
2016-12-29T05:06:56.256Z,0
2016-12-29T05:07:56.308Z,0
2016-12-29T05:08:56.377Z,0
2016-12-29T05:09:56.425Z,0
2016-12-29T05:10:56.488Z,0
2016-12-29T05:11:56.532Z,0
2016-12-29T05:12:56.584Z,0
2016-12-29T05:13:56.666Z,0
2016-12-29T05:14:56.696Z,0
2016-12-29T05:15:56.753Z,0
2016-12-29T05:16:56.821Z,0
2016-12-29T05:17:56.874Z,0
2016-12-29T05:18:56.935Z,0
2016-12-29T05:19:56.988Z,0
2016-12-29T05:20:57.039Z,0
2016-12-29T05:21:57.096Z,0
2016-12-29T05:22:57.162Z,0
2016-12-29T05:23:57.198Z,0
2016-12-29T05:24:57.267Z,0
2016-12-29T05:25:57.325Z,0
2016-12-29T05:26:57.371Z,0
2016-12-29T05:27:57.426Z,0
2016-12-29T05:28:57.483Z,0
2016-12-29T05:29:57.530Z,0
2016-12-29T05:30:57.593Z,0
2016-12-29T05:31:57.649Z,0
2016-12-29T05:32:57.703Z,0
2016-12-29T05:33:57.769Z,0
2016-12-29T05:34:57.821Z,0
2016-12-29T05:35:57.873Z,0
2016-12-29T05:36:57.915Z,0
2016-12-29T05:37:57.979Z,0
2016-12-29T05:38:58.055Z,0
2016-12-29T05:39:58.091Z,0
2016-12-29T05:40:58.147Z,0
2016-12-29T05:41:58.213Z,0
2016-12-29T05:42:58.264Z,0
2016-12-29T05:43:58.319Z,0
2016-12-29T05:44:58.376Z,0
2016-12-29T05:45:58.426Z,0
2016-12-29T05:46:58.494Z,0
2016-12-29T05:47:58.546Z,0
2016-12-29T05:48:58.588Z,0
2016-12-29T05:49:58.658Z,0
2016-12-29T05:50:58.705Z,0
2016-12-29T05:51:58.761Z,0
2016-12-29T05:52:58.830Z,0
2016-12-29T05:53:58.883Z,0
2016-12-29T05:54:58.932Z,0
2016-12-29T05:55:59.004Z,0
2016-12-29T05:56:59.070Z,0
2016-12-29T05:57:59.102Z,0
2016-12-29T05:58:59.177Z,0
2016-12-29T05:59:59.217Z,0
2016-12-29T06:00:59.264Z,0
2016-12-29T06:01:59.322Z,0
2016-12-29T06:02:59.383Z,0
2016-12-29T06:03:59.442Z,0
2016-12-29T06:04:59.496Z,0
2016-12-29T06:05:59.548Z,0
2016-12-29T06:06:59.593Z,0
2016-12-29T06:07:59.660Z,0
2016-12-29T06:08:59.711Z,0
2016-12-29T06:09:59.775Z,0
2016-12-29T06:10:59.833Z,0
2016-12-29T06:11:59.875Z,0
2016-12-29T06:12:59.933Z,0
2016-12-29T06:13:59.988Z,0
2016-12-29T06:15:00.047Z,0
2016-12-29T06:16:00.101Z,0
2016-12-29T06:17:00.162Z,0
2016-12-29T06:18:00.211Z,0
2016-12-29T06:19:00.275Z,0
2016-12-29T06:20:00.342Z,0
2016-12-29T06:21:00.386Z,0
2016-12-29T06:22:00.443Z,0
2016-12-29T06:23:00.496Z,0
2016-12-29T06:24:00.555Z,0
2016-12-29T06:25:00.597Z,0
2016-12-29T06:26:00.659Z,0
2016-12-29T06:27:00.713Z,0
2016-12-29T06:28:00.769Z,0
2016-12-29T06:29:00.835Z,0
2016-12-29T06:30:00.890Z,0
2016-12-29T06:31:00.949Z,0
2016-12-29T06:32:00.999Z,0
2016-12-29T06:33:01.057Z,0
2016-12-29T06:34:01.106Z,0
2016-12-29T06:35:01.159Z,0
2016-12-29T06:36:01.245Z,0
2016-12-29T06:37:01.273Z,0
2016-12-29T06:38:01.338Z,0
2016-12-29T06:39:01.419Z,0
2016-12-29T06:40:01.473Z,0
2016-12-29T06:41:01.512Z,0
2016-12-29T06:42:01.548Z,0
2016-12-29T06:43:01.610Z,0
2016-12-29T06:44:01.663Z,0
2016-12-29T06:45:01.740Z,0
2016-12-29T06:46:01.794Z,0
2016-12-29T06:47:01.833Z,0
2016-12-29T06:48:01.896Z,0
2016-12-29T06:49:01.945Z,0
2016-12-29T06:50:02.034Z,0
2016-12-29T06:51:02.065Z,0
2016-12-29T06:52:02.117Z,0
2016-12-29T06:53:02.195Z,0
2016-12-29T06:54:02.264Z,0
2016-12-29T06:55:02.274Z,0
2016-12-29T06:56:02.330Z,0
2016-12-29T06:57:02.402Z,0
2016-12-29T06:58:02.446Z,0
2016-12-29T06:59:02.505Z,0
2016-12-29T07:00:02.564Z,0
2016-12-29T07:01:02.613Z,0
2016-12-29T07:02:03.454Z,0
2016-12-29T07:03:02.737Z,0
2016-12-29T07:04:02.789Z,0
2016-12-29T07:05:02.842Z,0
2016-12-29T07:06:02.905Z,0
2016-12-29T07:07:02.976Z,0
2016-12-29T07:08:03.006Z,5
2016-12-29T07:09:03.478Z,5
2016-12-29T07:10:03.133Z,5
2016-12-29T07:11:03.181Z,5
2016-12-29T07:12:03.245Z,5
2016-12-29T07:13:03.290Z,5
2016-12-29T07:14:03.347Z,5
2016-12-29T07:15:03.399Z,5
2016-12-29T07:16:03.453Z,5
2016-12-29T07:17:03.517Z,5
2016-12-29T07:18:03.575Z,5
2016-12-29T07:19:03.627Z,5
2016-12-29T07:20:03.708Z,10
2016-12-29T07:21:03.744Z,10
2016-12-29T07:22:03.796Z,10
2016-12-29T07:23:03.858Z,10
2016-12-29T07:24:03.906Z,10
2016-12-29T07:25:03.971Z,10
2016-12-29T07:26:04.217Z,10
2016-12-29T07:27:04.111Z,10
2016-12-29T07:28:04.134Z,10
2016-12-29T07:29:04.202Z,10
2016-12-29T07:30:04.450Z,10
2016-12-29T07:31:04.414Z,15
2016-12-29T07:32:04.743Z,15
2016-12-29T07:33:04.434Z,15
2016-12-29T07:34:04.859Z,15
2016-12-29T07:35:04.531Z,15
2016-12-29T07:36:04.691Z,15
2016-12-29T07:37:05.046Z,15
2016-12-29T07:38:04.693Z,15
2016-12-29T07:39:04.762Z,15
2016-12-29T07:40:04.823Z,15
2016-12-29T07:41:04.877Z,20
2016-12-29T07:42:05.360Z,20
2016-12-29T07:43:05.000Z,20
2016-12-29T07:44:05.048Z,20
2016-12-29T07:45:05.101Z,20
2016-12-29T07:46:05.162Z,20
2016-12-29T07:47:05.225Z,20
2016-12-29T07:48:05.271Z,20
2016-12-29T07:49:05.342Z,20
2016-12-29T07:50:05.401Z,20
2016-12-29T07:51:05.431Z,20
2016-12-29T07:52:05.505Z,25
2016-12-29T07:53:05.560Z,25
2016-12-29T07:54:05.620Z,25
2016-12-29T07:55:05.674Z,25
2016-12-29T07:56:05.729Z,25
2016-12-29T07:57:05.984Z,25
2016-12-29T07:58:05.844Z,25
2016-12-29T07:59:05.904Z,25
2016-12-29T08:00:05.962Z,25
2016-12-29T08:01:06.011Z,25
2016-12-29T08:02:06.067Z,25
2016-12-29T08:03:06.125Z,25
2016-12-29T08:04:06.181Z,25
2016-12-29T08:05:06.246Z,25
2016-12-29T08:06:06.295Z,25
2016-12-29T08:07:06.364Z,30
2016-12-29T08:08:06.412Z,30
2016-12-29T08:09:06.468Z,30
2016-12-29T08:10:06.528Z,30
2016-12-29T08:11:06.582Z,30
2016-12-29T08:12:06.631Z,30
2016-12-29T08:13:06.692Z,30
2016-12-29T08:14:06.756Z,30
2016-12-29T08:15:06.814Z,30
2016-12-29T08:16:06.872Z,30
2016-12-29T08:17:06.920Z,30
2016-12-29T08:18:06.984Z,35
2016-12-29T08:19:07.039Z,35
2016-12-29T08:20:07.083Z,35
2016-12-29T08:21:07.731Z,30
2016-12-29T08:22:07.633Z,35
2016-12-29T08:23:07.266Z,35
2016-12-29T08:24:07.313Z,35
2016-12-29T08:25:07.381Z,35
2016-12-29T08:26:07.635Z,35
2016-12-29T08:27:07.484Z,35
2016-12-29T08:28:07.550Z,35
2016-12-29T08:29:07.600Z,35
2016-12-29T08:30:07.650Z,35
2016-12-29T08:31:07.710Z,35
2016-12-29T08:32:07.769Z,35
2016-12-29T08:33:07.825Z,35
2016-12-29T08:34:07.878Z,40
2016-12-29T08:35:07.931Z,40
2016-12-29T08:36:07.987Z,40
2016-12-29T08:37:08.038Z,40
2016-12-29T08:38:08.087Z,40
2016-12-29T08:39:08.148Z,40
2016-12-29T08:40:08.203Z,40
2016-12-29T08:41:08.263Z,40
2016-12-29T08:42:08.324Z,40
2016-12-29T08:43:08.377Z,40
2016-12-29T08:44:08.429Z,40
2016-12-29T08:45:08.479Z,40
2016-12-29T08:46:08.540Z,40
2016-12-29T08:47:08.606Z,45
2016-12-29T08:48:08.670Z,45
2016-12-29T08:49:08.706Z,45
2016-12-29T08:50:08.755Z,45
2016-12-29T08:51:08.810Z,45
2016-12-29T08:52:08.880Z,45
2016-12-29T08:53:08.929Z,45
2016-12-29T08:54:08.978Z,45
2016-12-29T08:55:09.236Z,45
2016-12-29T08:56:09.083Z,45
2016-12-29T08:57:09.172Z,45
2016-12-29T08:58:09.211Z,45
2016-12-29T08:59:09.262Z,50
2016-12-29T09:00:09.712Z,50
2016-12-29T09:01:09.369Z,50
2016-12-29T09:02:09.441Z,50
2016-12-29T09:03:09.483Z,50
2016-12-29T09:04:09.535Z,50
2016-12-29T09:05:09.602Z,50
2016-12-29T09:06:09.645Z,50
2016-12-29T09:07:09.743Z,50
2016-12-29T09:08:09.767Z,55
2016-12-29T09:09:09.817Z,55
2016-12-29T09:10:09.869Z,55
2016-12-29T09:11:09.928Z,55
2016-12-29T09:12:09.996Z,55
2016-12-29T09:13:10.050Z,55
2016-12-29T09:14:10.100Z,55
2016-12-29T09:15:10.155Z,60
2016-12-29T09:16:10.220Z,60
2016-12-29T09:17:10.260Z,60
2016-12-29T09:18:10.332Z,60
2016-12-29T09:19:10.373Z,65
2016-12-29T09:20:10.441Z,65
2016-12-29T09:21:10.484Z,65
2016-12-29T09:22:10.563Z,70
2016-12-29T09:23:10.803Z,75
2016-12-29T09:24:25.608Z,80
2016-12-29T09:25:10.730Z,85
2016-12-29T09:26:10.784Z,95
2016-12-29T09:27:10.843Z,195
2016-12-29T09:28:10.891Z,540
2016-12-29T09:29:10.960Z,680
2016-12-29T09:30:11.014Z,650
2016-12-29T09:31:11.059Z,655
2016-12-29T09:32:11.128Z,645
2016-12-29T09:33:11.182Z,650
2016-12-29T09:34:11.238Z,670
2016-12-29T09:35:11.295Z,725
2016-12-29T09:36:11.346Z,780
2016-12-29T09:37:11.409Z,655
2016-12-29T09:38:11.460Z,400
2016-12-29T09:39:11.515Z,320
2016-12-29T09:40:11.567Z,305
2016-12-29T09:41:11.636Z,295
2016-12-29T09:42:11.689Z,290
2016-12-29T09:43:11.753Z,295
2016-12-29T09:44:11.804Z,305
2016-12-29T09:45:11.854Z,320
2016-12-29T09:46:11.920Z,435
2016-12-29T09:47:11.987Z,700
2016-12-29T09:48:12.038Z,810
2016-12-29T09:49:12.091Z,730
2016-12-29T09:50:12.157Z,705
2016-12-29T09:51:12.244Z,710
2016-12-29T09:52:12.439Z,700
2016-12-29T09:53:12.536Z,750
2016-12-29T09:54:12.526Z,780
2016-12-29T09:55:12.427Z,735
2016-12-29T09:56:12.483Z,720
2016-12-29T09:57:12.548Z,715
2016-12-29T09:58:12.608Z,750
2016-12-29T09:59:12.655Z,760
2016-12-29T10:00:12.714Z,705
2016-12-29T10:01:12.769Z,740
2016-12-29T10:02:12.822Z,755
2016-12-29T10:03:12.884Z,805
2016-12-29T10:04:12.941Z,855
2016-12-29T10:05:12.999Z,850
2016-12-29T10:06:13.455Z,860
2016-12-29T10:07:13.142Z,795
2016-12-29T10:08:13.179Z,785
2016-12-29T10:09:13.240Z,825
2016-12-29T10:10:13.288Z,805
2016-12-29T10:11:13.348Z,805
2016-12-29T10:12:13.406Z,875
2016-12-29T10:13:13.454Z,940
2016-12-29T10:14:13.538Z,1365
2016-12-29T10:15:13.574Z,1445
2016-12-29T10:16:13.639Z,1190
2016-12-29T10:17:13.692Z,965
2016-12-29T10:18:13.766Z,880
2016-12-29T10:19:13.800Z,1025
2016-12-29T10:20:13.959Z,1020
2016-12-29T10:21:14.120Z,885
2016-12-29T10:22:14.181Z,700
2016-12-29T10:23:14.039Z,655
2016-12-29T10:24:14.087Z,745
2016-12-29T10:25:14.157Z,895
2016-12-29T10:26:14.193Z,965
2016-12-29T10:27:14.261Z,755
2016-12-29T10:28:14.324Z,490
2016-12-29T10:29:14.407Z,465
2016-12-29T10:30:14.813Z,495
2016-12-29T10:31:14.495Z,545
2016-12-29T10:32:14.560Z,585
2016-12-29T10:33:14.602Z,810
2016-12-29T10:34:14.671Z,1105
2016-12-29T10:35:14.762Z,1080
2016-12-29T10:36:14.771Z,1050
2016-12-29T10:37:14.825Z,910
2016-12-29T10:38:14.924Z,870
2016-12-29T10:39:14.952Z,925
2016-12-29T10:40:15.019Z,985
2016-12-29T10:41:15.065Z,1155
2016-12-29T10:42:15.135Z,1295
2016-12-29T10:43:15.183Z,1045
2016-12-29T10:44:15.249Z,880
2016-12-29T10:45:15.302Z,785
2016-12-29T10:46:15.342Z,635
2016-12-29T10:47:15.437Z,600
2016-12-29T10:48:15.472Z,645
2016-12-29T10:49:15.537Z,860
2016-12-29T10:50:15.777Z,1455
2016-12-29T10:51:15.643Z,1645
2016-12-29T10:52:15.709Z,1155
2016-12-29T10:53:15.776Z,820
2016-12-29T10:54:15.813Z,810
2016-12-29T10:55:15.874Z,955
2016-12-29T10:56:15.929Z,1180
2016-12-29T10:57:16.020Z,1180
2016-12-29T10:58:16.040Z,1010
2016-12-29T10:59:16.110Z,1220
2016-12-29T11:00:16.160Z,1405
2016-12-29T11:01:16.214Z,990
2016-12-29T11:02:16.282Z,620
2016-12-29T11:03:16.339Z,575
2016-12-29T11:04:16.379Z,610
2016-12-29T11:05:16.438Z,605
2016-12-29T11:06:16.499Z,570
2016-12-29T11:07:16.560Z,600
2016-12-29T11:08:16.607Z,605
2016-12-29T11:09:16.672Z,640
2016-12-29T11:10:16.743Z,885
2016-12-29T11:11:16.786Z,1385
2016-12-29T11:12:16.843Z,1700
2016-12-29T11:13:16.901Z,1835
2016-12-29T11:14:16.969Z,1650
2016-12-29T11:15:17.025Z,1295
2016-12-29T11:16:17.472Z,1170
2016-12-29T11:17:17.131Z,1335
2016-12-29T11:18:17.197Z,1450
2016-12-29T11:19:17.263Z,1195
2016-12-29T11:20:17.310Z,990
2016-12-29T11:21:17.421Z,1110
2016-12-29T11:22:17.415Z,1225
2016-12-29T11:23:17.473Z,1290
2016-12-29T11:24:17.538Z,1325
2016-12-29T11:25:17.595Z,1255
2016-12-29T11:26:17.649Z,1190
2016-12-29T11:27:17.707Z,1050
2016-12-29T11:28:17.769Z,945
2016-12-29T11:29:17.829Z,1035
2016-12-29T11:30:17.887Z,1190
2016-12-29T11:31:18.203Z,1180
2016-12-29T11:32:18.003Z,1165
2016-12-29T11:33:18.058Z,1210
2016-12-29T11:34:18.115Z,1170
2016-12-29T11:35:18.164Z,1160
2016-12-29T11:36:18.228Z,1170
2016-12-29T11:37:18.283Z,1200
2016-12-29T11:38:18.345Z,1385
2016-12-29T11:39:18.392Z,1435
2016-12-29T11:40:18.461Z,915
2016-12-29T11:41:18.524Z,485
2016-12-29T11:42:18.568Z,420
2016-12-29T11:43:18.668Z,410
2016-12-29T11:44:18.707Z,405
2016-12-29T11:45:18.754Z,405
2016-12-29T11:46:18.801Z,400
2016-12-29T11:47:18.875Z,440
2016-12-29T11:48:18.933Z,795
2016-12-29T11:49:18.994Z,1230
2016-12-29T11:50:19.044Z,1195
2016-12-29T11:51:19.120Z,1080
2016-12-29T11:52:19.184Z,1225
2016-12-29T11:53:19.214Z,1155
2016-12-29T11:54:19.284Z,725
2016-12-29T11:55:19.326Z,465
2016-12-29T11:56:19.398Z,410
2016-12-29T11:57:19.446Z,395
2016-12-29T11:58:19.513Z,400
2016-12-29T11:59:19.580Z,545
2016-12-29T12:00:19.627Z,1035
2016-12-29T12:01:19.682Z,1385
2016-12-29T12:02:19.746Z,1285
2016-12-29T12:03:19.793Z,1200
2016-12-29T12:04:19.866Z,1170
2016-12-29T12:05:19.925Z,1145
2016-12-29T12:06:19.967Z,1120
2016-12-29T12:07:20.038Z,1095
2016-12-29T12:08:20.092Z,1060
2016-12-29T12:09:20.136Z,1010
2016-12-29T12:10:20.200Z,1050
2016-12-29T12:11:20.265Z,1070
2016-12-29T12:12:20.343Z,1030
2016-12-29T12:13:20.386Z,1060
2016-12-29T12:14:20.441Z,1095
2016-12-29T12:15:20.516Z,1090
2016-12-29T12:16:20.556Z,1045
2016-12-29T12:17:20.618Z,1020
2016-12-29T12:18:20.664Z,1035
2016-12-29T12:19:20.729Z,990
2016-12-29T12:20:20.778Z,995
2016-12-29T12:21:20.847Z,1045
2016-12-29T12:22:20.893Z,1020
2016-12-29T12:23:20.948Z,990
2016-12-29T12:24:21.016Z,990
2016-12-29T12:25:21.080Z,990
2016-12-29T12:26:21.139Z,1030
2016-12-29T12:27:21.188Z,1060
2016-12-29T12:28:21.235Z,1060
2016-12-29T12:29:21.321Z,1050
2016-12-29T12:30:21.353Z,1065
2016-12-29T12:31:21.410Z,1070
2016-12-29T12:32:21.478Z,1045
2016-12-29T12:33:21.537Z,1060
2016-12-29T12:34:21.579Z,1070
2016-12-29T12:35:21.650Z,1040
2016-12-29T12:36:21.710Z,1020
2016-12-29T12:37:21.755Z,1065
2016-12-29T12:38:21.828Z,1175
2016-12-29T12:39:21.878Z,1145
2016-12-29T12:40:21.925Z,740
2016-12-29T12:41:21.997Z,435
2016-12-29T12:42:22.046Z,400
2016-12-29T12:43:22.104Z,405
2016-12-29T12:44:22.173Z,455
2016-12-29T12:45:22.219Z,765
2016-12-29T12:46:22.285Z,1135
2016-12-29T12:47:22.339Z,1150
2016-12-29T12:48:22.392Z,1040
2016-12-29T12:49:22.443Z,1005
2016-12-29T12:50:22.502Z,1000
2016-12-29T12:51:22.561Z,1020
2016-12-29T12:52:22.614Z,995
2016-12-29T12:53:22.671Z,980
2016-12-29T12:54:22.729Z,985
2016-12-29T12:55:22.784Z,960
2016-12-29T12:56:22.842Z,950
2016-12-29T12:57:22.895Z,980
2016-12-29T12:58:22.954Z,970
2016-12-29T12:59:23.034Z,925
2016-12-29T13:00:23.075Z,950
2016-12-29T13:01:23.135Z,975
2016-12-29T13:02:23.190Z,945
2016-12-29T13:03:23.248Z,950
2016-12-29T13:04:23.304Z,940
2016-12-29T13:05:23.367Z,920
2016-12-29T13:06:23.420Z,945
2016-12-29T13:07:23.477Z,995
2016-12-29T13:08:23.528Z,965
2016-12-29T13:09:23.587Z,930
2016-12-29T13:10:23.644Z,920
2016-12-29T13:11:23.697Z,895
2016-12-29T13:12:23.764Z,885
2016-12-29T13:13:23.818Z,915
2016-12-29T13:14:23.874Z,950
2016-12-29T13:15:23.937Z,980
2016-12-29T13:16:23.972Z,980
2016-12-29T13:17:24.054Z,985
2016-12-29T13:18:24.089Z,975
2016-12-29T13:19:24.160Z,945
2016-12-29T13:20:24.230Z,930
2016-12-29T13:21:24.284Z,925
2016-12-29T13:22:24.333Z,960
2016-12-29T13:23:24.392Z,1035
2016-12-29T13:24:24.825Z,945
2016-12-29T13:25:24.490Z,735
2016-12-29T13:26:24.565Z,580
2016-12-29T13:27:24.616Z,570
2016-12-29T13:28:24.673Z,700
2016-12-29T13:29:24.717Z,850
2016-12-29T13:30:24.790Z,860
2016-12-29T13:31:24.850Z,820
2016-12-29T13:32:24.892Z,890
2016-12-29T13:33:24.958Z,850
2016-12-29T13:34:25.001Z,750
2016-12-29T13:35:25.074Z,855
2016-12-29T13:36:25.124Z,920
2016-12-29T13:37:25.186Z,845
2016-12-29T13:38:25.248Z,785
2016-12-29T13:39:25.303Z,760
2016-12-29T13:40:25.752Z,785
2016-12-29T13:41:25.411Z,765
2016-12-29T13:42:25.480Z,760
2016-12-29T13:43:25.519Z,780
2016-12-29T13:44:25.582Z,765
2016-12-29T13:45:25.631Z,755
2016-12-29T13:46:25.693Z,755
2016-12-29T13:47:25.761Z,705
2016-12-29T13:48:25.802Z,700
2016-12-29T13:49:25.869Z,730
2016-12-29T13:50:25.929Z,730
2016-12-29T13:51:25.982Z,730
2016-12-29T13:52:26.035Z,695
2016-12-29T13:53:26.096Z,670
2016-12-29T13:54:26.160Z,660
2016-12-29T13:55:26.193Z,650
2016-12-29T13:56:26.260Z,640
2016-12-29T13:57:26.317Z,680
2016-12-29T13:58:26.375Z,700
2016-12-29T13:59:26.444Z,710
2016-12-29T14:00:26.517Z,675
2016-12-29T14:01:26.555Z,635
2016-12-29T14:02:26.640Z,585
2016-12-29T14:03:26.675Z,490
2016-12-29T14:04:26.728Z,365
2016-12-29T14:05:26.782Z,200
2016-12-29T14:06:26.842Z,65
2016-12-29T14:07:26.896Z,35
2016-12-29T14:08:26.944Z,35
2016-12-29T14:09:27.000Z,35
2016-12-29T14:10:27.059Z,35
2016-12-29T14:11:27.120Z,35
2016-12-29T14:12:27.174Z,35
2016-12-29T14:13:27.221Z,35
2016-12-29T14:14:27.438Z,35
2016-12-29T14:15:27.348Z,35
2016-12-29T14:16:27.395Z,35
2016-12-29T14:17:27.449Z,40
2016-12-29T14:18:27.509Z,40